sensor_id;sensor_type;location;lat;lon;timestamp;pressure;altitude;pressure_sealevel;temperature;humidity
26775;BME280;14362;51.902;7.626;2023-05-01T00:01:21;101226.47;;;10.25;100.00
26775;BME280;14362;51.902;7.626;2023-05-01T00:05:23;101211.22;;;10.22;100.00
26775;BME280;14362;51.902;7.626;2023-05-01T00:09:27;101211.31;;;10.18;100.00
26775;BME280;14362;51.902;7.626;2023-05-01T00:13:28;101211.94;;;10.15;100.00
26775;BME280;14362;51.902;7.626;2023-05-01T00:17:30;101197.28;;;10.09;100.00
26775;BME280;14362;51.902;7.626;2023-05-01T00:21:31;101183.25;;;10.14;100.00
26775;BME280;14362;51.902;7.626;2023-05-01T00:25:34;101177.78;;;10.09;100.00
26775;BME280;14362;51.902;7.626;2023-05-01T00:29:36;101188.13;;;10.09;100.00
26775;BME280;14362;51.902;7.626;2023-05-01T00:33:37;101182.31;;;10.05;100.00
26775;BME280;14362;51.902;7.626;2023-05-01T00:37:39;101178.03;;;9.99;100.00
26775;BME280;14362;51.902;7.626;2023-05-01T00:41:42;101170.53;;;9.95;100.00
26775;BME280;14362;51.902;7.626;2023-05-01T00:45:44;101168.06;;;9.93;100.00
26775;BME280;14362;51.902;7.626;2023-05-01T00:49:46;101164.44;;;9.93;100.00
26775;BME280;14362;51.902;7.626;2023-05-01T00:53:48;101155.69;;;9.86;100.00
26775;BME280;14362;51.902;7.626;2023-05-01T00:57:51;101155.19;;;9.84;100.00
26775;BME280;14362;51.902;7.626;2023-05-01T01:01:54;101147.13;;;9.82;100.00
26775;BME280;14362;51.902;7.626;2023-05-01T01:05:58;101137.44;;;9.80;100.00
26775;BME280;14362;51.902;7.626;2023-05-01T01:10:11;101125.19;;;9.81;100.00
26775;BME280;14362;51.902;7.626;2023-05-01T01:14:24;101130.31;;;9.74;98.77
26775;BME280;14362;51.902;7.626;2023-05-01T01:18:33;101126.72;;;9.73;100.00
26775;BME280;14362;51.902;7.626;2023-05-01T01:22:39;101115.16;;;9.66;99.92
26775;BME280;14362;51.902;7.626;2023-05-01T01:27:00;101114.66;;;9.64;100.00
26775;BME280;14362;51.902;7.626;2023-05-01T01:31:12;101109.41;;;9.63;100.00
26775;BME280;14362;51.902;7.626;2023-05-01T01:35:18;101104.25;;;9.56;100.00
26775;BME280;14362;51.902;7.626;2023-05-01T01:39:26;101098.25;;;9.49;100.00
26775;BME280;14362;51.902;7.626;2023-05-01T01:43:31;101097.44;;;9.35;100.00
26775;BME280;14362;51.902;7.626;2023-05-01T01:47:40;101089.78;;;9.27;100.00
26775;BME280;14362;51.902;7.626;2023-05-01T01:51:44;101093.22;;;9.24;100.00
26775;BME280;14362;51.902;7.626;2023-05-01T01:55:47;101073.84;;;9.19;100.00
26775;BME280;14362;51.902;7.626;2023-05-01T01:59:50;101077.75;;;9.18;100.00
26775;BME280;14362;51.902;7.626;2023-05-01T02:03:54;101067.75;;;9.17;100.00
26775;BME280;14362;51.902;7.626;2023-05-01T02:07:57;101070.31;;;9.14;100.00
26775;BME280;14362;51.902;7.626;2023-05-01T02:12:01;101063.72;;;9.10;100.00
26775;BME280;14362;51.902;7.626;2023-05-01T02:16:04;101061.34;;;9.04;100.00
26775;BME280;14362;51.902;7.626;2023-05-01T02:20:07;101059.69;;;9.03;100.00
26775;BME280;14362;51.902;7.626;2023-05-01T02:24:13;101053.78;;;8.91;100.00
26775;BME280;14362;51.902;7.626;2023-05-01T02:28:20;101060.59;;;8.85;100.00
26775;BME280;14362;51.902;7.626;2023-05-01T02:32:22;101046.38;;;8.86;100.00
26775;BME280;14362;51.902;7.626;2023-05-01T02:36:25;101046.84;;;8.75;100.00
26775;BME280;14362;51.902;7.626;2023-05-01T02:40:28;101043.03;;;8.71;100.00
26775;BME280;14362;51.902;7.626;2023-05-01T02:44:37;101042.81;;;8.67;100.00
26775;BME280;14362;51.902;7.626;2023-05-01T02:48:41;101028.41;;;8.65;100.00
26775;BME280;14362;51.902;7.626;2023-05-01T02:52:43;101019.03;;;8.61;100.00
26775;BME280;14362;51.902;7.626;2023-05-01T02:56:46;101015.59;;;8.51;100.00
26775;BME280;14362;51.902;7.626;2023-05-01T03:00:48;101013.22;;;8.44;100.00
26775;BME280;14362;51.902;7.626;2023-05-01T03:04:49;101006.84;;;8.44;100.00
26775;BME280;14362;51.902;7.626;2023-05-01T03:08:51;101012.56;;;8.34;100.00
26775;BME280;14362;51.902;7.626;2023-05-01T03:12:54;101001.84;;;8.27;100.00
26775;BME280;14362;51.902;7.626;2023-05-01T03:16:55;101005.81;;;8.21;100.00
26775;BME280;14362;51.902;7.626;2023-05-01T03:20:57;101001.09;;;8.22;100.00
26775;BME280;14362;51.902;7.626;2023-05-01T03:24:59;100990.59;;;8.19;100.00
26775;BME280;14362;51.902;7.626;2023-05-01T03:29:02;100989.91;;;8.27;100.00
26775;BME280;14362;51.902;7.626;2023-05-01T03:33:03;100977.44;;;8.24;100.00
26775;BME280;14362;51.902;7.626;2023-05-01T03:37:05;100974.66;;;8.24;100.00
26775;BME280;14362;51.902;7.626;2023-05-01T03:41:07;100972.72;;;8.25;100.00
26775;BME280;14362;51.902;7.626;2023-05-01T03:45:10;100972.66;;;8.30;100.00
26775;BME280;14362;51.902;7.626;2023-05-01T03:49:11;100968.81;;;8.26;100.00
26775;BME280;14362;51.902;7.626;2023-05-01T03:53:13;100967.59;;;8.32;100.00
26775;BME280;14362;51.902;7.626;2023-05-01T03:57:15;100960.09;;;8.32;100.00
26775;BME280;14362;51.902;7.626;2023-05-01T04:01:18;100961.16;;;8.36;100.00
26775;BME280;14362;51.902;7.626;2023-05-01T04:05:20;100959.50;;;8.35;100.00
26775;BME280;14362;51.902;7.626;2023-05-01T04:09:21;100961.16;;;8.36;100.00
26775;BME280;14362;51.902;7.626;2023-05-01T04:13:23;100963.00;;;8.41;100.00
26775;BME280;14362;51.902;7.626;2023-05-01T04:17:26;100959.50;;;8.35;100.00
26775;BME280;14362;51.902;7.626;2023-05-01T04:21:27;100959.19;;;8.37;100.00
26775;BME280;14362;51.902;7.626;2023-05-01T04:25:29;100945.50;;;8.40;100.00
26775;BME280;14362;51.902;7.626;2023-05-01T04:29:31;100950.56;;;8.38;100.00
26775;BME280;14362;51.902;7.626;2023-05-01T04:33:33;100950.16;;;8.45;100.00
26775;BME280;14362;51.902;7.626;2023-05-01T04:37:35;100944.91;;;8.43;100.00
26775;BME280;14362;51.902;7.626;2023-05-01T04:41:36;100949.31;;;8.44;100.00
26775;BME280;14362;51.902;7.626;2023-05-01T04:45:38;100938.94;;;8.50;100.00
26775;BME280;14362;51.902;7.626;2023-05-01T04:49:41;100941.63;;;8.55;100.00
26775;BME280;14362;51.902;7.626;2023-05-01T04:53:42;100946.25;;;8.59;100.00
26775;BME280;14362;51.902;7.626;2023-05-01T04:57:44;100945.25;;;8.69;100.00
26775;BME280;14362;51.902;7.626;2023-05-01T05:01:45;100941.97;;;8.67;100.00
26775;BME280;14362;51.902;7.626;2023-05-01T05:05:48;100934.88;;;8.74;100.00
26775;BME280;14362;51.902;7.626;2023-05-01T05:09:49;100934.75;;;8.79;100.00
26775;BME280;14362;51.902;7.626;2023-05-01T05:13:51;100932.41;;;8.86;100.00
26775;BME280;14362;51.902;7.626;2023-05-01T05:17:52;100929.81;;;8.90;100.00
26775;BME280;14362;51.902;7.626;2023-05-01T05:21:55;100935.59;;;9.07;100.00
26775;BME280;14362;51.902;7.626;2023-05-01T05:25:58;100935.91;;;9.18;100.00
26775;BME280;14362;51.902;7.626;2023-05-01T05:30:00;100937.22;;;9.21;100.00
26775;BME280;14362;51.902;7.626;2023-05-01T05:34:01;100941.84;;;9.25;100.00
26775;BME280;14362;51.902;7.626;2023-05-01T05:38:04;100933.94;;;9.32;100.00
26775;BME280;14362;51.902;7.626;2023-05-01T05:42:06;100933.81;;;9.37;100.00
26775;BME280;14362;51.902;7.626;2023-05-01T05:46:07;100936.50;;;9.42;100.00
26775;BME280;14362;51.902;7.626;2023-05-01T05:50:09;100929.56;;;9.53;100.00
26775;BME280;14362;51.902;7.626;2023-05-01T05:54:12;100929.31;;;9.63;100.00
26775;BME280;14362;51.902;7.626;2023-05-01T05:58:14;100932.06;;;9.77;100.00
26775;BME280;14362;51.902;7.626;2023-05-01T06:02:19;100927.13;;;9.74;100.00
26775;BME280;14362;51.902;7.626;2023-05-01T06:06:21;100928.72;;;9.88;100.00
26775;BME280;14362;51.902;7.626;2023-05-01T06:10:24;100926.09;;;10.05;100.00
26775;BME280;14362;51.902;7.626;2023-05-01T06:14:25;100919.97;;;10.17;100.00
26775;BME280;14362;51.902;7.626;2023-05-01T06:18:26;100920.75;;;10.39;100.00
26775;BME280;14362;51.902;7.626;2023-05-01T06:22:29;100922.50;;;10.57;97.42
26775;BME280;14362;51.902;7.626;2023-05-01T06:26:32;100910.06;;;10.93;94.10
26775;BME280;14362;51.902;7.626;2023-05-01T06:30:33;100905.59;;;11.31;93.57
26775;BME280;14362;51.902;7.626;2023-05-01T06:34:34;100919.56;;;11.39;90.68
26775;BME280;14362;51.902;7.626;2023-05-01T06:38:36;100917.00;;;11.68;89.21
26775;BME280;14362;51.902;7.626;2023-05-01T06:42:39;100917.34;;;11.84;90.50
26775;BME280;14362;51.902;7.626;2023-05-01T06:46:41;100926.41;;;11.98;94.44
26775;BME280;14362;51.902;7.626;2023-05-01T06:50:42;100913.88;;;12.04;91.99
26775;BME280;14362;51.902;7.626;2023-05-01T06:54:44;100913.88;;;12.04;92.79
26775;BME280;14362;51.902;7.626;2023-05-01T06:58:47;100925.88;;;12.21;90.14
26775;BME280;14362;51.902;7.626;2023-05-01T07:02:48;100914.84;;;12.24;89.62
26775;BME280;14362;51.902;7.626;2023-05-01T07:06:50;100909.06;;;12.38;92.19
26775;BME280;14362;51.902;7.626;2023-05-01T07:10:51;100914.28;;;12.56;89.66
26775;BME280;14362;51.902;7.626;2023-05-01T07:14:54;100908.69;;;12.56;94.83
26775;BME280;14362;51.902;7.626;2023-05-01T07:18:56;100907.59;;;12.86;94.18
26775;BME280;14362;51.902;7.626;2023-05-01T07:22:58;100896.31;;;13.12;88.49
26775;BME280;14362;51.902;7.626;2023-05-01T07:26:59;100904.44;;;13.33;86.91
26775;BME280;14362;51.902;7.626;2023-05-01T07:31:02;100903.03;;;13.48;83.20
26775;BME280;14362;51.902;7.626;2023-05-01T07:35:04;100897.22;;;13.53;83.18
26775;BME280;14362;51.902;7.626;2023-05-01T07:39:06;100897.66;;;13.84;80.81
26775;BME280;14362;51.902;7.626;2023-05-01T07:43:08;100891.16;;;13.71;82.40
26775;BME280;14362;51.902;7.626;2023-05-01T07:47:11;100887.63;;;13.83;84.12
26775;BME280;14362;51.902;7.626;2023-05-01T07:51:13;100886.84;;;13.94;84.85
26775;BME280;14362;51.902;7.626;2023-05-01T07:55:14;100883.41;;;13.89;84.18
26775;BME280;14362;51.902;7.626;2023-05-01T07:59:18;100888.41;;;14.04;86.39
26775;BME280;14362;51.902;7.626;2023-05-01T08:03:21;100882.81;;;14.04;83.88
26775;BME280;14362;51.902;7.626;2023-05-01T08:07:22;100891.31;;;14.16;86.24
26775;BME280;14362;51.902;7.626;2023-05-01T08:11:25;100893.66;;;14.26;83.50
26775;BME280;14362;51.902;7.626;2023-05-01T08:15:28;100891.34;;;14.28;83.48
26775;BME280;14362;51.902;7.626;2023-05-01T08:19:32;100892.00;;;14.45;86.07
26775;BME280;14362;51.902;7.626;2023-05-01T08:23:33;100888.41;;;14.68;78.97
26775;BME280;14362;51.902;7.626;2023-05-01T08:27:35;100873.25;;;14.81;84.16
26775;BME280;14362;51.902;7.626;2023-05-01T08:31:36;100879.44;;;15.11;79.96
26775;BME280;14362;51.902;7.626;2023-05-01T08:35:39;100878.50;;;15.54;74.68
26775;BME280;14362;51.902;7.626;2023-05-01T08:39:41;100869.75;;;15.56;73.87
26775;BME280;14362;51.902;7.626;2023-05-01T08:43:42;100873.56;;;15.75;76.37
26775;BME280;14362;51.902;7.626;2023-05-01T08:47:44;100870.41;;;16.04;72.33
26775;BME280;14362;51.902;7.626;2023-05-01T08:51:49;100873.81;;;16.25;71.04
26775;BME280;14362;51.902;7.626;2023-05-01T08:55:53;100861.28;;;16.35;71.15
26775;BME280;14362;51.902;7.626;2023-05-01T08:59:56;100857.06;;;16.56;71.63
26775;BME280;14362;51.902;7.626;2023-05-01T09:04:01;100855.16;;;16.75;65.50
26775;BME280;14362;51.902;7.626;2023-05-01T09:08:04;100845.72;;;16.83;68.11
26775;BME280;14362;51.902;7.626;2023-05-01T09:12:12;100846.72;;;17.06;67.25
26775;BME280;14362;51.902;7.626;2023-05-01T09:16:16;100838.25;;;17.37;66.20
26775;BME280;14362;51.902;7.626;2023-05-01T09:20:18;100835.41;;;17.52;62.88
26775;BME280;14362;51.902;7.626;2023-05-01T09:24:23;100841.34;;;17.66;62.87
26775;BME280;14362;51.902;7.626;2023-05-01T09:28:41;100843.94;;;17.75;61.97
26775;BME280;14362;51.902;7.626;2023-05-01T09:32:43;100827.72;;;17.87;63.50
26775;BME280;14362;51.902;7.626;2023-05-01T09:36:45;100833.94;;;17.96;63.52
26775;BME280;14362;51.902;7.626;2023-05-01T09:40:49;100823.53;;;18.00;62.80
26775;BME280;14362;51.902;7.626;2023-05-01T09:44:51;100822.97;;;18.10;60.39
26775;BME280;14362;51.902;7.626;2023-05-01T09:48:56;100828.16;;;17.89;61.09
26775;BME280;14362;51.902;7.626;2023-05-01T09:53:00;100817.63;;;17.86;62.39
26775;BME280;14362;51.902;7.626;2023-05-01T09:57:03;100818.28;;;17.80;61.31
26775;BME280;14362;51.902;7.626;2023-05-01T10:01:04;100822.88;;;17.88;62.56
26775;BME280;14362;51.902;7.626;2023-05-01T10:05:08;100819.47;;;17.98;61.28
26775;BME280;14362;51.902;7.626;2023-05-01T10:09:10;100815.69;;;18.09;60.68
26775;BME280;14362;51.902;7.626;2023-05-01T10:13:17;100816.94;;;18.31;56.74
26775;BME280;14362;51.902;7.626;2023-05-01T10:17:19;100803.78;;;18.38;57.05
26775;BME280;14362;51.902;7.626;2023-05-01T10:21:21;100807.63;;;18.49;58.39
26775;BME280;14362;51.902;7.626;2023-05-01T10:25:24;100803.16;;;18.70;56.22
26775;BME280;14362;51.902;7.626;2023-05-01T10:29:30;100807.13;;;18.66;54.44
26775;BME280;14362;51.902;7.626;2023-05-01T10:33:32;100797.56;;;18.74;57.35
26775;BME280;14362;51.902;7.626;2023-05-01T10:37:37;100802.09;;;18.78;55.41
26775;BME280;14362;51.902;7.626;2023-05-01T10:42:05;100797.88;;;18.91;56.02
26775;BME280;14362;51.902;7.626;2023-05-01T10:46:26;100789.28;;;19.33;49.80
26775;BME280;14362;51.902;7.626;2023-05-01T10:50:28;100787.94;;;19.23;51.76
26775;BME280;14362;51.902;7.626;2023-05-01T10:54:30;100787.34;;;19.37;52.17
26775;BME280;14362;51.902;7.626;2023-05-01T10:58:54;100787.44;;;19.44;53.27
26775;BME280;14362;51.902;7.626;2023-05-01T11:03:34;100774.09;;;19.44;54.12
26775;BME280;14362;51.902;7.626;2023-05-01T11:07:36;100779.81;;;19.48;52.77
26775;BME280;14362;51.902;7.626;2023-05-01T11:11:46;100764.94;;;19.54;54.17
26775;BME280;14362;51.902;7.626;2023-05-01T11:15:49;100772.03;;;19.70;53.37
26775;BME280;14362;51.902;7.626;2023-05-01T11:19:53;100768.78;;;19.68;50.59
26775;BME280;14362;51.902;7.626;2023-05-01T11:23:55;100759.56;;;19.75;51.29
26775;BME280;14362;51.902;7.626;2023-05-01T11:27:59;100767.50;;;19.62;50.48
26775;BME280;14362;51.902;7.626;2023-05-01T11:32:01;100759.94;;;19.70;51.14
26775;BME280;14362;51.902;7.626;2023-05-01T11:36:05;100768.72;;;19.61;50.67
26775;BME280;14362;51.902;7.626;2023-05-01T11:40:17;100763.56;;;19.70;50.48
26775;BME280;14362;51.902;7.626;2023-05-01T11:44:19;100759.69;;;19.85;50.25
26775;BME280;14362;51.902;7.626;2023-05-01T11:48:21;100762.38;;;20.04;50.45
26775;BME280;14362;51.902;7.626;2023-05-01T11:52:24;100753.84;;;19.97;49.84
26775;BME280;14362;51.902;7.626;2023-05-01T11:56:26;100751.03;;;20.01;51.31
26775;BME280;14362;51.902;7.626;2023-05-01T12:00:30;100751.47;;;20.03;48.68
26775;BME280;14362;51.902;7.626;2023-05-01T12:04:32;100752.78;;;20.12;47.82
26775;BME280;14362;51.902;7.626;2023-05-01T12:08:35;100750.50;;;20.25;51.64
26775;BME280;14362;51.902;7.626;2023-05-01T12:12:37;100753.44;;;20.35;49.52
26775;BME280;14362;51.902;7.626;2023-05-01T12:16:39;100756.22;;;20.32;47.94
26775;BME280;14362;51.902;7.626;2023-05-01T12:20:43;100747.63;;;20.21;47.08
26775;BME280;14362;51.902;7.626;2023-05-01T12:24:50;100744.78;;;20.21;48.40
26775;BME280;14362;51.902;7.626;2023-05-01T12:28:57;100747.66;;;20.25;47.70
26775;BME280;14362;51.902;7.626;2023-05-01T12:32:59;100745.59;;;20.18;48.38
26775;BME280;14362;51.902;7.626;2023-05-01T12:37:08;100739.09;;;20.18;47.83
26775;BME280;14362;51.902;7.626;2023-05-01T12:41:11;100746.41;;;20.22;47.12
26775;BME280;14362;51.902;7.626;2023-05-01T12:45:13;100743.59;;;20.22;47.92
26775;BME280;14362;51.902;7.626;2023-05-01T12:49:16;100738.81;;;20.30;46.48
26775;BME280;14362;51.902;7.626;2023-05-01T12:53:18;100741.28;;;20.35;46.40
26775;BME280;14362;51.902;7.626;2023-05-01T12:57:21;100738.44;;;20.31;45.47
26775;BME280;14362;51.902;7.626;2023-05-01T13:01:23;100736.38;;;20.28;44.70
26775;BME280;14362;51.902;7.626;2023-05-01T13:05:26;100734.09;;;20.44;44.28
26775;BME280;14362;51.902;7.626;2023-05-01T13:09:28;100728.22;;;20.23;46.19
26775;BME280;14362;51.902;7.626;2023-05-01T13:13:33;100719.69;;;20.16;46.06
26775;BME280;14362;51.902;7.626;2023-05-01T13:17:35;100723.34;;;20.20;45.44
26775;BME280;14362;51.902;7.626;2023-05-01T13:21:45;100717.69;;;20.20;45.72
26775;BME280;14362;51.902;7.626;2023-05-01T13:25:46;100718.81;;;20.12;46.10
26775;BME280;14362;51.902;7.626;2023-05-01T13:29:52;100718.00;;;20.12;45.85
26775;BME280;14362;51.902;7.626;2023-05-01T13:33:56;100714.78;;;20.10;46.37
26775;BME280;14362;51.902;7.626;2023-05-01T13:37:59;100707.81;;;20.04;47.02
26775;BME280;14362;51.902;7.626;2023-05-01T13:42:02;100706.63;;;20.05;46.49
26775;BME280;14362;51.902;7.626;2023-05-01T13:46:06;100711.13;;;20.13;47.28
26775;BME280;14362;51.902;7.626;2023-05-01T13:50:08;100707.50;;;20.12;47.36
26775;BME280;14362;51.902;7.626;2023-05-01T13:54:11;100713.97;;;20.13;47.55
26775;BME280;14362;51.902;7.626;2023-05-01T13:58:13;100716.75;;;20.06;48.00
26775;BME280;14362;51.902;7.626;2023-05-01T14:02:19;100710.34;;;20.12;48.31
26775;BME280;14362;51.902;7.626;2023-05-01T14:06:22;100707.84;;;20.07;48.65
26775;BME280;14362;51.902;7.626;2023-05-01T14:10:25;100713.75;;;19.95;48.62
26775;BME280;14362;51.902;7.626;2023-05-01T14:14:27;100716.03;;;19.83;48.69
26775;BME280;14362;51.902;7.626;2023-05-01T14:18:30;100712.66;;;19.70;49.22
26775;BME280;14362;51.902;7.626;2023-05-01T14:22:37;100707.31;;;19.65;50.48
26775;BME280;14362;51.902;7.626;2023-05-01T14:26:42;100705.38;;;19.69;50.27
26775;BME280;14362;51.902;7.626;2023-05-01T14:30:44;100707.75;;;19.67;51.41
26775;BME280;14362;51.902;7.626;2023-05-01T14:34:49;100708.59;;;19.68;51.45
26775;BME280;14362;51.902;7.626;2023-05-01T14:38:54;100707.88;;;19.78;51.31
26775;BME280;14362;51.902;7.626;2023-05-01T14:42:56;100706.72;;;19.82;51.28
26775;BME280;14362;51.902;7.626;2023-05-01T14:46:58;100706.38;;;19.87;50.52
26775;BME280;14362;51.902;7.626;2023-05-01T14:51:03;100710.38;;;19.83;50.86
26775;BME280;14362;51.902;7.626;2023-05-01T14:55:06;100709.94;;;19.81;51.37
26775;BME280;14362;51.902;7.626;2023-05-01T14:59:08;100706.22;;;19.73;50.97
26775;BME280;14362;51.902;7.626;2023-05-01T15:03:10;100706.69;;;19.79;50.85
26775;BME280;14362;51.902;7.626;2023-05-01T15:07:12;100704.72;;;19.83;51.38
26775;BME280;14362;51.902;7.626;2023-05-01T15:11:14;100700.34;;;19.89;52.28
26775;BME280;14362;51.902;7.626;2023-05-01T15:15:17;100704.69;;;20.12;52.63
26775;BME280;14362;51.902;7.626;2023-05-01T15:19:19;100700.41;;;20.29;52.90
26775;BME280;14362;51.902;7.626;2023-05-01T15:23:22;100698.78;;;20.28;51.68
26775;BME280;14362;51.902;7.626;2023-05-01T15:27:26;100710.34;;;20.12;51.04
26775;BME280;14362;51.902;7.626;2023-05-01T15:31:27;100703.06;;;20.15;52.47
26775;BME280;14362;51.902;7.626;2023-05-01T15:35:29;100705.41;;;20.06;51.15
26775;BME280;14362;51.902;7.626;2023-05-01T15:39:32;100706.69;;;20.12;51.44
26775;BME280;14362;51.902;7.626;2023-05-01T15:43:34;100703.72;;;20.38;48.81
26775;BME280;14362;51.902;7.626;2023-05-01T15:47:35;100708.16;;;20.39;46.78
26775;BME280;14362;51.902;7.626;2023-05-01T15:51:37;100708.41;;;20.23;46.32
26775;BME280;14362;51.902;7.626;2023-05-01T15:55:39;100704.44;;;19.95;45.96
26775;BME280;14362;51.902;7.626;2023-05-01T15:59:41;100704.31;;;19.84;46.97
26775;BME280;14362;51.902;7.626;2023-05-01T16:03:43;100710.22;;;19.69;49.30
26775;BME280;14362;51.902;7.626;2023-05-01T16:07:45;100704.06;;;19.63;49.14
26775;BME280;14362;51.902;7.626;2023-05-01T16:11:49;100710.41;;;19.54;51.40
26775;BME280;14362;51.902;7.626;2023-05-01T16:15:51;100711.03;;;19.40;51.52
26775;BME280;14362;51.902;7.626;2023-05-01T16:19:53;100719.34;;;19.26;51.78
26775;BME280;14362;51.902;7.626;2023-05-01T16:23:54;100730.16;;;19.21;53.42
26775;BME280;14362;51.902;7.626;2023-05-01T16:27:57;100726.31;;;19.10;52.15
26775;BME280;14362;51.902;7.626;2023-05-01T16:32:00;100733.53;;;19.04;52.31
26775;BME280;14362;51.902;7.626;2023-05-01T16:36:07;100739.81;;;18.94;53.75
26775;BME280;14362;51.902;7.626;2023-05-01T16:40:14;100775.59;;;18.86;54.72
26775;BME280;14362;51.902;7.626;2023-05-01T16:44:18;100793.06;;;18.47;56.08
26775;BME280;14362;51.902;7.626;2023-05-01T16:48:22;100805.88;;;18.03;58.28
26775;BME280;14362;51.902;7.626;2023-05-01T16:52:24;100823.91;;;17.61;63.21
26775;BME280;14362;51.902;7.626;2023-05-01T16:56:25;100829.63;;;17.30;73.03
26775;BME280;14362;51.902;7.626;2023-05-01T17:00:28;100840.38;;;16.94;88.24
26775;BME280;14362;51.902;7.626;2023-05-01T17:04:30;100834.72;;;16.63;94.84
26775;BME280;14362;51.902;7.626;2023-05-01T17:08:32;100847.31;;;16.53;97.14
26775;BME280;14362;51.902;7.626;2023-05-01T17:12:33;100847.56;;;16.33;98.22
26775;BME280;14362;51.902;7.626;2023-05-01T17:16:36;100866.53;;;16.09;100.00
26775;BME280;14362;51.902;7.626;2023-05-01T17:20:38;100875.44;;;15.71;100.00
26775;BME280;14362;51.902;7.626;2023-05-01T17:24:39;100874.31;;;15.25;100.00
26775;BME280;14362;51.902;7.626;2023-05-01T17:28:41;100872.44;;;15.05;100.00
26775;BME280;14362;51.902;7.626;2023-05-01T17:32:45;100882.84;;;14.80;100.00
26775;BME280;14362;51.902;7.626;2023-05-01T17:36:46;100899.03;;;14.51;100.00
26775;BME280;14362;51.902;7.626;2023-05-01T17:40:48;100907.84;;;14.29;100.00
26775;BME280;14362;51.902;7.626;2023-05-01T17:44:49;100910.97;;;14.07;100.00
26775;BME280;14362;51.902;7.626;2023-05-01T17:48:52;100913.00;;;13.98;100.00
26775;BME280;14362;51.902;7.626;2023-05-01T17:52:54;100907.97;;;13.92;100.00
26775;BME280;14362;51.902;7.626;2023-05-01T17:56:55;100907.56;;;13.81;100.00
26775;BME280;14362;51.902;7.626;2023-05-01T18:00:57;100896.63;;;13.68;100.00
26775;BME280;14362;51.902;7.626;2023-05-01T18:05:00;100890.56;;;13.66;100.00
26775;BME280;14362;51.902;7.626;2023-05-01T18:09:01;100893.00;;;13.67;100.00
26775;BME280;14362;51.902;7.626;2023-05-01T18:13:03;100885.63;;;13.63;100.00
26775;BME280;14362;51.902;7.626;2023-05-01T18:17:05;100894.34;;;13.61;100.00
26775;BME280;14362;51.902;7.626;2023-05-01T18:21:08;100900.78;;;13.62;100.00
26775;BME280;14362;51.902;7.626;2023-05-01T18:25:09;100892.09;;;13.55;100.00
26775;BME280;14362;51.902;7.626;2023-05-01T18:29:11;100898.06;;;13.53;100.00
26775;BME280;14362;51.902;7.626;2023-05-01T18:33:12;100902.97;;;13.56;100.00
26775;BME280;14362;51.902;7.626;2023-05-01T18:37:15;100906.09;;;13.55;100.00
26775;BME280;14362;51.902;7.626;2023-05-01T18:41:17;100912.06;;;13.53;100.00
26775;BME280;14362;51.902;7.626;2023-05-01T18:45:18;100912.88;;;13.54;100.00
26775;BME280;14362;51.902;7.626;2023-05-01T18:49:20;100917.50;;;13.50;100.00
26775;BME280;14362;51.902;7.626;2023-05-01T18:53:24;100921.47;;;13.49;100.00
26775;BME280;14362;51.902;7.626;2023-05-01T18:57:26;100916.88;;;13.44;100.00
26775;BME280;14362;51.902;7.626;2023-05-01T19:01:27;100925.16;;;13.41;100.00
26775;BME280;14362;51.902;7.626;2023-05-01T19:05:29;100941.94;;;13.41;100.00
26775;BME280;14362;51.902;7.626;2023-05-01T19:09:32;100943.16;;;13.31;100.00
26775;BME280;14362;51.902;7.626;2023-05-01T19:13:33;100941.16;;;13.32;100.00
26775;BME280;14362;51.902;7.626;2023-05-01T19:17:35;100947.16;;;13.22;100.00
26775;BME280;14362;51.902;7.626;2023-05-01T19:21:36;100952.25;;;13.20;100.00
26775;BME280;14362;51.902;7.626;2023-05-01T19:25:39;100965.91;;;13.22;100.00
26775;BME280;14362;51.902;7.626;2023-05-01T19:29:41;100974.66;;;13.20;100.00
26775;BME280;14362;51.902;7.626;2023-05-01T19:33:43;100975.94;;;13.23;100.00
26775;BME280;14362;51.902;7.626;2023-05-01T19:37:45;100988.50;;;13.17;100.00
26775;BME280;14362;51.902;7.626;2023-05-01T19:41:48;100990.31;;;13.13;100.00
26775;BME280;14362;51.902;7.626;2023-05-01T19:45:50;100996.28;;;13.11;100.00
26775;BME280;14362;51.902;7.626;2023-05-01T19:49:52;100991.84;;;13.10;100.00
26775;BME280;14362;51.902;7.626;2023-05-01T19:53:53;100989.22;;;13.05;100.00
26775;BME280;14362;51.902;7.626;2023-05-01T19:57:57;100995.47;;;13.02;100.00
26775;BME280;14362;51.902;7.626;2023-05-01T20:01:58;100991.69;;;12.98;100.00
26775;BME280;14362;51.902;7.626;2023-05-01T20:06:00;100992.53;;;12.99;100.00
26775;BME280;14362;51.902;7.626;2023-05-01T20:10:02;101003.41;;;12.92;100.00
26775;BME280;14362;51.902;7.626;2023-05-01T20:14:05;101009.00;;;12.92;100.00
26775;BME280;14362;51.902;7.626;2023-05-01T20:18:07;101006.53;;;12.90;100.00
26775;BME280;14362;51.902;7.626;2023-05-01T20:22:08;101007.66;;;12.89;100.00
26775;BME280;14362;51.902;7.626;2023-05-01T20:26:10;101002.06;;;12.89;100.00
26775;BME280;14362;51.902;7.626;2023-05-01T20:30:13;101006.03;;;12.88;100.00
26775;BME280;14362;51.902;7.626;2023-05-01T20:34:14;101000.75;;;12.87;100.00
26775;BME280;14362;51.902;7.626;2023-05-01T20:38:15;101012.59;;;12.84;100.00
26775;BME280;14362;51.902;7.626;2023-05-01T20:42:17;101011.94;;;12.87;100.00
26775;BME280;14362;51.902;7.626;2023-05-01T20:46:20;101014.59;;;12.83;100.00
26775;BME280;14362;51.902;7.626;2023-05-01T20:50:22;101024.28;;;12.77;100.00
26775;BME280;14362;51.902;7.626;2023-05-01T20:54:23;101027.28;;;12.72;100.00
26775;BME280;14362;51.902;7.626;2023-05-01T20:58:24;101024.00;;;12.70;100.00
26775;BME280;14362;51.902;7.626;2023-05-01T21:02:27;101019.72;;;12.64;100.00
26775;BME280;14362;51.902;7.626;2023-05-01T21:06:30;101027.75;;;12.66;100.00